Time;durP1;ratioP1;P1;durP2;ratioP2;P2;SDS_P1;SDS_P2;PMS_P1;PMS_P2;Temp;Humidity;BMP_temperature;BMP_pressure;BME280_temperature;BME280_humidity;BME280_pressure;Samples;Min_cycle;Max_cycle;Signal;HPM_P1;HPM_P2
2021/08/13 00:00:15;;;;;;;15.95;8.45;;;;;;;25.28;47.06;99926.38;5123305;27;20031;-70
2021/08/13 00:02:40;;;;;;;16.02;8.93;;;;;;;25.22;47.26;99917.47;5125555;27;20031;-70
2021/08/13 00:05:06;;;;;;;10.15;8.77;;;;;;;25.32;47.26;99925.09;5122351;27;20028;-71
2021/08/13 00:07:31;;;;;;;13.10;9.27;;;;;;;25.30;47.03;99924.72;5125741;27;20035;-71
2021/08/13 00:09:57;;;;;;;14.70;8.93;;;;;;;25.07;47.43;99925.38;5124239;27;20023;-70
2021/08/13 00:12:22;;;;;;;16.02;8.40;;;;;;;24.94;48.03;99923.06;5125017;27;20043;-72
2021/08/13 00:14:48;;;;;;;14.35;9.25;;;;;;;24.91;47.97;99917.38;5126413;27;20027;-73
2021/08/13 00:17:13;;;;;;;11.55;8.80;;;;;;;24.92;48.31;99921.84;5122911;28;20032;-72
2021/08/13 00:19:39;;;;;;;14.30;9.55;;;;;;;25.13;47.83;99928.59;5126830;27;20102;-73
2021/08/13 00:22:04;;;;;;;14.57;8.60;;;;;;;25.09;47.87;99929.44;5121183;28;20053;-71
2021/08/13 00:24:30;;;;;;;12.35;8.23;;;;;;;24.89;48.86;99932.06;5125479;28;20488;-70
2021/08/13 00:26:55;;;;;;;12.38;7.55;;;;;;;24.87;48.52;99928.03;5124595;27;20023;-72
2021/08/13 00:29:20;;;;;;;16.92;8.00;;;;;;;24.80;48.58;99931.78;5114781;28;20412;-72
2021/08/13 00:31:46;;;;;;;10.15;8.95;;;;;;;24.78;48.63;99935.03;5110373;28;20394;-70
2021/08/13 00:34:11;;;;;;;11.20;9.55;;;;;;;24.74;48.90;99925.66;5110733;28;20045;-71
2021/08/13 00:36:39;;;;;;;18.20;9.52;;;;;;;24.66;48.74;99930.59;5110365;28;20028;-70
2021/08/13 00:39:04;;;;;;;11.35;9.52;;;;;;;24.49;48.95;99920.94;5109323;28;20035;-72
2021/08/13 00:41:30;;;;;;;14.55;9.48;;;;;;;24.35;49.19;99921.88;5110447;28;20031;-70
2021/08/13 00:43:55;;;;;;;14.27;8.82;;;;;;;24.30;49.39;99930.09;5110586;28;20032;-72
2021/08/13 00:46:21;;;;;;;10.05;9.02;;;;;;;24.20;49.27;99924.00;5109320;28;20024;-72
2021/08/13 00:48:46;;;;;;;10.80;9.70;;;;;;;24.01;50.22;99930.22;5113285;28;20030;-71
2021/08/13 00:51:12;;;;;;;10.25;9.02;;;;;;;23.90;50.25;99922.53;5114494;27;20019;-70
2021/08/13 00:53:38;;;;;;;14.30;8.82;;;;;;;23.88;50.49;99927.81;5114379;28;20510;-70
2021/08/13 00:56:04;;;;;;;11.20;9.45;;;;;;;23.90;50.60;99930.28;5114431;28;20062;-71
2021/08/13 00:58:30;;;;;;;9.20;8.27;;;;;;;23.93;50.59;99930.28;5114246;28;20032;-71
2021/08/13 01:00:57;;;;;;;9.75;8.75;;;;;;;23.91;50.20;99938.44;5114476;28;20032;-72
2021/08/13 01:03:22;;;;;;;13.63;9.20;;;;;;;23.91;49.69;99929.88;5112461;28;20035;-72
2021/08/13 01:05:48;;;;;;;19.35;9.63;;;;;;;23.78;50.32;99945.84;5106354;28;20466;-72
2021/08/13 01:08:13;;;;;;;14.90;9.98;;;;;;;23.66;50.40;99941.41;5114295;28;20106;-72
2021/08/13 01:11:15;;;;;;;12.52;10.43;;;;;;;23.62;50.84;99954.88;5114334;28;20028;-70
2021/08/13 01:14:01;;;;;;;16.52;10.80;;;;;;;23.66;50.67;99942.22;5112266;28;20055;-70
2021/08/13 01:16:28;;;;;;;10.07;9.00;;;;;;;23.52;51.08;99953.66;5113992;28;20115;-70
2021/08/13 01:19:26;;;;;;;12.45;9.85;;;;;;;23.56;51.23;99948.78;5112667;28;20031;-70
2021/08/13 01:21:57;;;;;;;12.02;9.52;;;;;;;23.32;52.00;99954.16;5092509;28;20047;-71
2021/08/13 01:24:24;;;;;;;15.90;10.40;;;;;;;23.41;51.48;99948.00;5113770;28;20034;-71
2021/08/13 01:27:01;;;;;;;13.27;9.90;;;;;;;23.42;51.17;99961.88;5146912;27;20028;-71
2021/08/13 01:29:45;;;;;;;11.32;10.18;;;;;;;23.53;51.27;99963.84;5113718;28;20031;-72
2021/08/13 01:32:16;;;;;;;12.25;10.57;;;;;;;23.46;51.57;99963.91;5113897;28;20027;-72
2021/08/13 01:34:47;;;;;;;14.52;11.07;;;;;;;23.24;52.16;99978.19;5113649;28;20062;-72
2021/08/13 01:37:14;;;;;;;14.50;10.70;;;;;;;23.28;52.26;99967.59;5146526;27;20059;-71
2021/08/13 01:39:40;;;;;;;13.13;10.65;;;;;;;23.24;52.40;99981.03;5146381;27;20030;-72
2021/08/13 01:42:07;;;;;;;13.70;10.77;;;;;;;23.01;53.13;99982.28;5112251;28;20114;-70
2021/08/13 01:44:33;;;;;;;15.85;11.13;;;;;;;22.91;53.85;99977.38;5113458;28;20032;-71
2021/08/13 01:47:00;;;;;;;15.90;11.18;;;;;;;22.81;54.25;99982.72;5113534;28;20102;-72
2021/08/13 01:49:29;;;;;;;16.35;13.02;;;;;;;22.80;54.05;99986.75;5113545;28;20031;-71
2021/08/13 01:51:55;;;;;;;13.07;11.67;;;;;;;22.86;53.49;99981.47;5113027;28;20161;-72
2021/08/13 01:54:23;;;;;;;12.15;10.73;;;;;;;22.89;53.60;99985.53;5112176;28;20053;-70
2021/08/13 01:56:48;;;;;;;14.63;10.77;;;;;;;22.88;53.63;99990.44;5113301;28;20036;-71
2021/08/13 01:59:15;;;;;;;14.73;11.50;;;;;;;22.75;54.26;99990.03;5113010;28;20485;-72
2021/08/13 02:01:41;;;;;;;15.63;11.25;;;;;;;22.90;54.10;99993.69;5111799;28;20543;-70
2021/08/13 02:04:08;;;;;;;13.60;11.52;;;;;;;22.81;54.38;99985.56;5112977;28;20077;-72
2021/08/13 02:06:35;;;;;;;18.50;13.40;;;;;;;22.78;54.35;99994.91;5111890;28;20511;-72
2021/08/13 02:09:01;;;;;;;14.82;11.75;;;;;;;22.62;55.30;99991.63;5112939;28;20443;-70
2021/08/13 02:11:27;;;;;;;15.82;11.48;;;;;;;22.55;55.62;99998.16;5112978;28;20092;-73
2021/08/13 02:13:54;;;;;;;15.45;11.95;;;;;;;22.63;55.12;99999.78;5145884;27;20019;-72
2021/08/13 02:16:26;;;;;;;16.05;12.75;;;;;;;22.54;55.67;99994.47;5145982;27;20069;-70
2021/08/13 02:19:03;;;;;;;18.83;12.18;;;;;;;22.58;55.85;99997.34;5113055;28;20622;-72
2021/08/13 02:21:33;;;;;;;23.80;11.88;;;;;;;22.62;56.07;100000.19;5112862;28;20089;-72
2021/08/13 02:23:59;;;;;;;14.00;12.40;;;;;;;22.57;56.12;99999.38;5112737;28;20032;-70
2021/08/13 02:26:24;;;;;;;21.73;13.55;;;;;;;22.52;56.33;100002.63;5112767;28;20031;-71
2021/08/13 02:28:53;;;;;;;25.65;12.60;;;;;;;22.50;56.54;99999.34;5111380;28;20084;-72
2021/08/13 02:31:19;;;;;;;15.68;12.27;;;;;;;22.50;56.52;99996.50;5145535;27;20493;-72
2021/08/13 02:33:44;;;;;;;15.48;12.20;;;;;;;22.54;56.35;100005.06;5112637;28;20032;-72
2021/08/13 02:36:14;;;;;;;24.13;12.48;;;;;;;22.51;56.50;100000.19;5112559;28;20019;-70
2021/08/13 02:38:50;;;;;;;;;;;;;;;22.61;56.04;100010.75;5113167;28;20050;-72
2021/08/13 02:41:17;;;;;;;15.82;13.00;;;;;;;22.69;56.03;100011.63;5145414;27;19912;-71
2021/08/13 02:43:49;;;;;;;14.00;12.27;;;;;;;22.74;55.77;100016.06;5112731;27;20031;-72
2021/08/13 02:46:16;;;;;;;15.00;12.15;;;;;;;22.79;56.11;100016.50;5145326;27;20032;-72
2021/08/13 02:48:42;;;;;;;15.73;12.68;;;;;;;22.75;55.89;100014.88;5110999;28;20514;-70
2021/08/13 02:51:10;;;;;;;17.88;12.60;;;;;;;22.82;56.21;100021.41;5112109;28;20026;-72
2021/08/13 02:53:39;;;;;;;16.80;13.30;;;;;;;22.76;56.32;100002.25;5145063;27;20450;-70
2021/08/13 02:56:07;;;;;;;19.40;12.18;;;;;;;22.73;56.16;100003.88;5112022;28;20027;-72
2021/08/13 02:58:42;;;;;;;14.48;12.35;;;;;;;22.62;56.65;100003.03;5111818;28;20035;-72
2021/08/13 03:01:12;;;;;;;14.48;12.05;;;;;;;22.59;56.72;100004.66;5112098;28;20028;-70
2021/08/13 03:03:38;;;;;;;16.30;13.20;;;;;;;22.76;55.71;100005.91;5110851;28;20031;-70
2021/08/13 03:06:06;;;;;;;17.88;12.82;;;;;;;22.78;55.85;100009.16;5111825;28;20020;-70
2021/08/13 03:08:33;;;;;;;15.80;12.40;;;;;;;22.78;55.59;100005.50;5111673;28;20500;-70
2021/08/13 03:11:01;;;;;;;20.98;11.82;;;;;;;22.71;55.84;100009.16;5111443;28;20047;-72
2021/08/13 03:13:27;;;;;;;19.48;12.57;;;;;;;22.77;56.03;100016.09;5112095;28;20050;-72
2021/08/13 03:15:54;;;;;;;24.58;13.70;;;;;;;22.74;56.19;100016.91;5111723;28;20485;-72
2021/08/13 03:18:20;;;;;;;13.63;12.18;;;;;;;22.85;55.24;100017.72;5111628;27;20019;-72
2021/08/13 03:20:45;;;;;;;15.00;12.35;;;;;;;22.73;55.16;100020.97;5111552;27;20084;-71
2021/08/13 03:23:11;;;;;;;18.45;13.25;;;;;;;22.65;54.89;100020.16;5131566;27;20027;-70
2021/08/13 03:25:38;;;;;;;15.13;12.60;;;;;;;22.55;54.96;100006.69;5130709;27;20107;-72
2021/08/13 03:28:07;;;;;;;13.50;11.93;;;;;;;22.74;54.34;100016.06;5130992;27;20031;-72
2021/08/13 03:30:44;;;;;;;16.40;11.48;;;;;;;22.53;54.67;100006.28;5131075;27;20031;-72
2021/08/13 03:33:12;;;;;;;17.35;11.98;;;;;;;22.52;54.36;100008.31;5130967;27;20122;-72
2021/08/13 03:35:38;;;;;;;13.63;10.32;;;;;;;22.38;54.10;100009.06;5122648;27;20044;-72
2021/08/13 03:38:04;;;;;;;33.45;11.13;;;;;;;22.37;54.26;100012.31;5126514;27;20046;-72
2021/08/13 03:40:30;;;;;;;19.25;12.50;;;;;;;22.29;54.04;100020.03;5128723;27;20027;-71
2021/08/13 03:42:55;;;;;;;17.27;11.75;;;;;;;22.25;54.14;100007.81;5125817;27;20028;-70
2021/08/13 03:45:21;;;;;;;15.00;11.82;;;;;;;22.24;54.25;100015.56;5121000;27;20098;-70
2021/08/13 03:47:46;;;;;;;16.75;11.27;;;;;;;22.23;54.40;100005.38;5111776;27;20028;-70
2021/08/13 03:50:12;;;;;;;18.48;12.40;;;;;;;22.18;54.72;100016.34;5126561;27;20018;-73
2021/08/13 03:52:37;;;;;;;17.73;11.10;;;;;;;21.97;55.60;100018.72;5123543;27;20475;-79
2021/08/13 03:55:03;;;;;;;14.23;11.50;;;;;;;21.99;55.52;100021.16;5124270;27;20047;-78
2021/08/13 03:57:29;;;;;;;18.60;11.48;;;;;;;22.05;54.94;100015.88;5124132;27;20020;-75
2021/08/13 03:59:54;;;;;;;15.55;10.85;;;;;;;22.01;55.03;100013.00;5121989;27;20077;-78
2021/08/13 04:02:19;;;;;;;17.65;11.13;;;;;;;22.14;54.65;100017.16;5126467;27;20084;-74
2021/08/13 04:04:45;;;;;;;24.10;11.82;;;;;;;22.14;55.02;100022.84;5121388;27;20031;-73
2021/08/13 04:07:11;;;;;;;17.98;11.18;;;;;;;22.20;54.82;100025.31;5115244;27;20020;-72
2021/08/13 04:09:37;;;;;;;19.10;11.30;;;;;;;22.44;54.01;100015.19;5123416;27;20598;-75
2021/08/13 04:12:03;;;;;;;18.02;11.02;;;;;;;22.74;52.89;100018.94;5122648;27;20039;-78
2021/08/13 04:14:28;;;;;;;18.75;11.30;;;;;;;22.77;52.49;100024.63;5110885;27;20505;-77
2021/08/13 04:16:54;;;;;;;11.70;10.18;;;;;;;22.70;52.86;100019.75;5109450;28;20062;-78
2021/08/13 04:19:19;;;;;;;14.68;11.55;;;;;;;22.74;52.89;100019.75;5108728;28;20015;-69
2021/08/13 04:21:44;;;;;;;16.25;11.13;;;;;;;22.64;53.12;100021.38;5108795;28;20035;-78
2021/08/13 04:24:10;;;;;;;15.88;10.50;;;;;;;22.81;52.88;100019.78;5110968;28;20034;-78
2021/08/13 04:26:36;;;;;;;16.52;11.48;;;;;;;22.99;52.65;100027.50;5113148;28;20405;-78
2021/08/13 04:29:01;;;;;;;17.33;10.73;;;;;;;23.01;52.81;100033.63;5111659;28;20054;-78
2021/08/13 04:31:27;;;;;;;12.75;11.25;;;;;;;23.11;52.47;100029.16;5113261;28;20031;-70
2021/08/13 04:33:52;;;;;;;18.75;11.30;;;;;;;22.98;52.95;100028.72;5114884;28;20031;-77
2021/08/13 04:36:18;;;;;;;19.02;10.95;;;;;;;23.05;52.76;100033.63;5115038;28;20012;-77
2021/08/13 04:38:43;;;;;;;14.32;10.75;;;;;;;23.26;52.17;100027.09;5114854;28;20052;-70
2021/08/13 04:41:09;;;;;;;13.07;9.98;;;;;;;23.31;51.95;100041.00;5114676;28;20023;-75
2021/08/13 04:43:35;;;;;;;15.32;10.50;;;;;;;23.21;51.86;100039.72;5113480;28;20020;-70
2021/08/13 04:46:01;;;;;;;15.07;9.95;;;;;;;23.31;51.64;100038.13;5114823;27;20508;-71
2021/08/13 04:48:26;;;;;;;12.77;9.02;;;;;;;23.45;51.25;100042.19;5115011;28;20177;-78
2021/08/13 04:50:52;;;;;;;21.77;10.15;;;;;;;23.49;51.11;100037.28;5147828;27;20504;-78
2021/08/13 04:53:18;;;;;;;11.30;9.30;;;;;;;23.63;50.38;100040.09;5147689;27;20031;-71
2021/08/13 04:55:44;;;;;;;13.70;9.00;;;;;;;23.80;49.81;100049.84;5114526;28;20034;-77
2021/08/13 04:58:10;;;;;;;12.00;9.43;;;;;;;23.86;49.35;100047.38;5114299;28;20106;-70
2021/08/13 05:00:35;;;;;;;13.13;8.40;;;;;;;23.76;49.62;100042.50;5114750;28;20024;-78
2021/08/13 05:03:07;;;;;;;19.17;9.25;;;;;;;23.88;49.06;100047.00;5114847;28;20042;-78
2021/08/13 05:05:32;;;;;;;13.13;8.13;;;;;;;24.05;47.85;100045.31;5114326;28;20082;-77
2021/08/13 05:07:58;;;;;;;12.40;8.48;;;;;;;24.11;47.73;100046.50;5114649;27;20473;-71
2021/08/13 05:10:24;;;;;;;16.33;9.00;;;;;;;24.23;46.74;100048.91;5114052;28;20480;-78
2021/08/13 05:12:50;;;;;;;11.18;8.00;;;;;;;24.39;46.64;100050.47;5114342;28;20034;-73
2021/08/13 05:15:16;;;;;;;12.57;8.57;;;;;;;24.43;46.59;100056.16;5105489;28;20511;-71
2021/08/13 05:17:42;;;;;;;29.42;9.82;;;;;;;24.62;46.21;100046.28;5120197;27;20023;-72
2021/08/13 05:20:09;;;;;;;17.35;9.25;;;;;;;24.66;46.34;100041.34;5118382;27;20545;-72
2021/08/13 05:22:36;;;;;;;14.30;8.52;;;;;;;24.95;46.11;100041.16;5119510;27;20695;-70
2021/08/13 05:25:07;;;;;;;15.98;10.18;;;;;;;25.17;45.41;100043.84;5120369;27;20023;-77
2021/08/13 05:27:33;;;;;;;14.82;9.40;;;;;;;25.32;44.96;100045.31;5119428;27;20054;-71
2021/08/13 05:29:59;;;;;;;10.48;8.25;;;;;;;25.50;44.26;100048.03;5114954;27;20015;-78
2021/08/13 05:32:24;;;;;;;14.85;8.15;;;;;;;25.60;44.15;100054.94;5119197;27;20110;-71
2021/08/13 05:34:51;;;;;;;67.40;10.52;;;;;;;25.77;43.45;100058.84;5123680;27;20043;-78
2021/08/13 05:37:17;;;;;;;18.55;8.88;;;;;;;25.87;43.61;100048.50;5112199;28;20052;-78
2021/08/13 05:39:43;;;;;;;10.57;7.40;;;;;;;26.11;43.33;100044.91;5122397;27;20083;-71
2021/08/13 05:42:09;;;;;;;19.48;8.68;;;;;;;26.27;42.89;100042.31;5120412;27;20504;-71
2021/08/13 05:44:35;;;;;;;13.50;8.23;;;;;;;26.41;42.52;100046.22;5120397;27;20478;-71
2021/08/13 05:47:00;;;;;;;11.98;8.20;;;;;;;26.58;42.28;100050.88;5120927;27;20527;-71
2021/08/13 05:49:26;;;;;;;19.40;9.82;;;;;;;26.82;41.76;100047.25;5118385;27;20032;-75
2021/08/13 05:51:51;;;;;;;9.93;8.00;;;;;;;26.92;40.73;100046.31;5114296;27;20038;-72
2021/08/13 05:54:17;;;;;;;10.10;7.75;;;;;;;26.92;40.69;100046.31;5118589;27;20028;-81
2021/08/13 05:56:42;;;;;;;10.77;6.97;;;;;;;27.22;39.47;100049.53;5119426;27;20027;-73
2021/08/13 05:59:07;;;;;;;11.05;7.07;;;;;;;27.24;38.59;100047.03;5118844;27;20429;-72
2021/08/13 06:01:33;;;;;;;13.48;7.38;;;;;;;27.25;38.12;100049.44;5115296;27;20473;-71
2021/08/13 06:03:59;;;;;;;21.58;7.15;;;;;;;27.21;38.62;100045.84;5122192;27;20493;-71
2021/08/13 06:06:26;;;;;;;13.93;7.03;;;;;;;27.43;37.88;100039.72;5113343;27;20497;-71
2021/08/13 06:08:51;;;;;;;10.00;6.35;;;;;;;27.46;38.15;100045.41;5122029;27;20041;-72
2021/08/13 06:11:17;;;;;;;20.80;7.57;;;;;;;27.42;38.47;100052.44;5119210;27;20012;-72
2021/08/13 06:13:42;;;;;;;11.85;7.55;;;;;;;27.46;37.91;100045.41;5116951;27;20019;-71
2021/08/13 06:16:08;;;;;;;8.27;6.32;;;;;;;27.56;38.46;100042.78;5112729;28;20016;-71
2021/08/13 06:18:33;;;;;;;12.07;6.75;;;;;;;27.68;38.24;100047.09;5109957;28;20027;-71
2021/08/13 06:20:59;;;;;;;13.10;7.72;;;;;;;27.85;38.09;100042.25;5110069;28;20027;-69
2021/08/13 06:23:24;;;;;;;8.50;7.15;;;;;;;28.05;37.55;100044.28;5113212;28;20036;-70
2021/08/13 06:25:50;;;;;;;11.35;7.20;;;;;;;28.03;37.38;100051.28;5112661;28;20156;-75
2021/08/13 06:28:15;;;;;;;10.40;7.72;;;;;;;28.10;37.92;100046.66;5103095;28;20551;-75
2021/08/13 06:30:41;;;;;;;12.05;8.50;;;;;;;28.17;37.75;100046.50;5112805;28;20098;-80
2021/08/13 06:33:06;;;;;;;14.75;7.47;;;;;;;28.28;37.47;100047.09;5145615;27;20180;-76
2021/08/13 06:35:32;;;;;;;9.40;6.97;;;;;;;28.38;37.00;100050.19;5111288;28;20413;-81
2021/08/13 06:37:57;;;;;;;25.30;8.00;;;;;;;28.37;37.11;100054.34;5112266;28;20104;-78
2021/08/13 06:40:24;;;;;;;11.52;7.38;;;;;;;28.46;36.84;100045.91;5108179;28;20036;-76
2021/08/13 06:42:50;;;;;;;11.02;7.55;;;;;;;28.44;37.45;100052.09;5106178;28;20058;-76
2021/08/13 06:45:18;;;;;;;13.18;7.55;;;;;;;28.52;37.41;100046.19;5111544;28;20023;-76
2021/08/13 06:47:44;;;;;;;15.05;7.82;;;;;;;28.67;37.17;100049.56;5111136;28;20055;-76
2021/08/13 06:50:11;;;;;;;10.95;6.78;;;;;;;28.79;36.78;100051.75;5112156;28;20578;-77
2021/08/13 06:52:37;;;;;;;18.27;7.45;;;;;;;28.75;37.47;100053.09;5111369;27;20039;-72
2021/08/13 06:55:05;;;;;;;11.95;7.47;;;;;;;28.61;36.84;100049.28;5112038;28;20069;-76
2021/08/13 06:57:30;;;;;;;26.50;8.02;;;;;;;28.71;37.46;100050.28;5119872;27;20054;-77
2021/08/13 06:59:56;;;;;;;13.55;7.70;;;;;;;28.69;37.92;100050.72;5120855;27;20028;-73
2021/08/13 07:02:23;;;;;;;13.30;8.27;;;;;;;28.75;37.59;100053.09;5124898;27;20100;-74
2021/08/13 07:04:48;;;;;;;16.02;8.02;;;;;;;28.80;37.59;100049.66;5119333;27;20020;-77
2021/08/13 07:07:14;;;;;;;17.00;7.22;;;;;;;28.87;37.18;100055.28;5125728;27;20035;-74
2021/08/13 07:09:40;;;;;;;18.00;8.18;;;;;;;28.73;37.92;100054.34;5122060;27;20469;-75
2021/08/13 07:12:05;;;;;;;86.68;10.20;;;;;;;28.79;37.48;100050.91;5122171;27;20177;-74
2021/08/13 07:14:31;;;;;;;15.88;7.82;;;;;;;28.90;37.76;100048.63;5111708;28;20027;-73
2021/08/13 07:16:56;;;;;;;9.05;7.18;;;;;;;29.10;37.27;100044.88;5111842;28;20519;-74
2021/08/13 07:19:22;;;;;;;14.35;7.47;;;;;;;29.26;36.80;100035.38;5127637;27;20557;-72
2021/08/13 07:21:47;;;;;;;23.50;8.82;;;;;;;29.16;37.23;100045.94;5111936;28;20038;-76
2021/08/13 07:24:15;;;;;;;35.42;9.15;;;;;;;29.09;37.55;100043.25;5137481;27;20031;-74
2021/08/13 07:26:40;;;;;;;140.75;15.50;;;;;;;29.06;38.81;100049.88;5097424;28;20032;-75
2021/08/13 07:29:06;;;;;;;309.58;29.85;;;;;;;29.07;37.90;100045.75;5108109;28;20030;-75
2021/08/13 07:31:31;;;;;;;37.22;8.88;;;;;;;28.99;37.82;100034.41;5109298;28;20050;-75
2021/08/13 07:33:57;;;;;;;12.73;7.18;;;;;;;29.10;37.97;100037.03;5109690;28;20054;-78
2021/08/13 07:36:25;;;;;;;10.27;7.80;;;;;;;28.95;37.54;100033.69;5142760;27;20109;-81
2021/08/13 07:38:51;;;;;;;11.88;7.18;;;;;;;29.00;37.33;100041.78;5110797;28;20101;-78
2021/08/13 07:41:17;;;;;;;15.25;8.25;;;;;;;29.00;36.96;100038.09;5108422;27;20504;-76
2021/08/13 07:43:42;;;;;;;14.35;7.90;;;;;;;28.99;37.62;100043.06;5105315;28;20035;-77
2021/08/13 07:46:10;;;;;;;14.93;7.30;;;;;;;29.00;37.86;100035.22;5112460;28;20515;-76
2021/08/13 07:48:36;;;;;;;25.02;7.97;;;;;;;29.00;37.62;100038.91;5114059;27;20076;-81
2021/08/13 07:51:02;;;;;;;9.88;7.20;;;;;;;29.07;37.83;100043.69;5112370;27;20059;-76
2021/08/13 07:53:27;;;;;;;15.10;7.20;;;;;;;29.17;37.87;100038.09;5113554;27;20111;-80
2021/08/13 07:55:53;;;;;;;12.43;7.35;;;;;;;29.19;37.76;100047.09;5134540;27;20489;-80
2021/08/13 07:58:18;;;;;;;17.35;7.85;;;;;;;29.24;37.37;100035.03;5107757;27;20031;-77
2021/08/13 08:00:44;;;;;;;16.73;7.00;;;;;;;29.13;37.52;100035.31;5110625;28;20027;-76
2021/08/13 08:03:10;;;;;;;11.82;7.25;;;;;;;29.11;37.25;100037.84;5106699;28;20023;-80
2021/08/13 08:05:38;;;;;;;11.95;7.13;;;;;;;29.40;37.06;100037.09;5119210;27;20042;-76
2021/08/13 08:08:04;;;;;;;14.95;7.60;;;;;;;29.37;37.26;100040.88;5129396;27;20458;-74
2021/08/13 08:10:29;;;;;;;7.88;7.07;;;;;;;29.41;37.08;100032.94;5128563;27;20027;-76
2021/08/13 08:12:55;;;;;;;10.73;7.72;;;;;;;29.47;37.21;100036.13;5115909;27;20459;-76
2021/08/13 08:15:20;;;;;;;10.15;7.78;;;;;;;29.46;37.58;100041.09;5107751;28;20031;-78
2021/08/13 08:17:46;;;;;;;13.68;6.80;;;;;;;29.52;37.43;100026.94;5107359;28;20027;-78
2021/08/13 08:20:11;;;;;;;16.75;7.72;;;;;;;29.63;37.40;100029.50;5109291;28;20047;-79
2021/08/13 08:22:37;;;;;;;11.40;7.03;;;;;;;29.55;36.39;100031.78;5109963;28;20503;-74
2021/08/13 08:25:03;;;;;;;15.82;7.13;;;;;;;29.39;36.77;100035.47;5110125;28;20034;-77
2021/08/13 08:27:29;;;;;;;15.10;7.60;;;;;;;29.63;37.25;100033.22;5110193;28;20047;-75
2021/08/13 08:29:54;;;;;;;14.07;7.80;;;;;;;29.81;36.11;100032.72;5110839;28;20059;-77
2021/08/13 08:32:20;;;;;;;8.05;7.15;;;;;;;29.66;36.73;100034.34;5110937;28;20389;-73
2021/08/13 08:34:45;;;;;;;18.52;8.05;;;;;;;29.75;36.86;100033.72;5110575;28;20106;-76
2021/08/13 08:37:11;;;;;;;18.35;8.93;;;;;;;29.88;36.74;100031.69;5109689;28;20066;-80
2021/08/13 08:39:38;;;;;;;16.48;8.25;;;;;;;29.84;37.00;100036.75;5109870;28;20039;-72
2021/08/13 08:42:16;;;;;;;28.95;10.02;;;;;;;29.93;36.67;100041.88;5126428;28;20016;-75
2021/08/13 08:44:44;;;;;;;19.52;8.35;;;;;;;29.86;36.88;100036.28;5143551;27;20051;-79
2021/08/13 08:47:09;;;;;;;19.90;7.97;;;;;;;29.83;36.62;100035.94;5110706;28;20064;-79
2021/08/13 08:49:40;;;;;;;17.58;7.47;;;;;;;30.04;36.43;100039.47;5143323;27;20032;-73
2021/08/13 08:52:10;;;;;;;13.88;7.47;;;;;;;30.25;36.11;100034.34;5110657;28;20500;-76
2021/08/13 08:54:38;;;;;;;12.55;7.82;;;;;;;30.16;35.68;100028.44;5109136;28;20047;-77
2021/08/13 08:57:05;;;;;;;9.50;7.90;;;;;;;30.18;35.72;100034.59;5110609;28;20046;-75
2021/08/13 08:59:31;;;;;;;9.38;7.53;;;;;;;30.21;35.59;100030.78;5110443;28;20031;-77
2021/08/13 09:01:58;;;;;;;12.15;7.50;;;;;;;30.25;35.47;100025.69;5110359;28;20016;-76
2021/08/13 09:04:23;;;;;;;11.20;7.80;;;;;;;30.30;35.86;100030.91;5109161;28;20036;-76
2021/08/13 09:06:49;;;;;;;10.95;8.63;;;;;;;30.30;35.57;100019.38;5134169;27;20401;-70
2021/08/13 09:09:14;;;;;;;11.65;7.88;;;;;;;30.45;36.13;100022.59;5113688;27;20023;-75
2021/08/13 09:11:41;;;;;;;8.55;7.75;;;;;;;30.54;35.61;100019.06;5116253;27;20051;-75
2021/08/13 09:14:10;;;;;;;10.35;7.28;;;;;;;30.72;34.68;100012.72;5114761;27;20699;-75
2021/08/13 09:16:36;;;;;;;8.57;7.70;;;;;;;30.57;34.99;100012.34;5113961;28;20035;-80
2021/08/13 09:19:04;;;;;;;8.82;7.55;;;;;;;30.76;35.43;100018.38;5113913;27;20035;-79
2021/08/13 09:21:32;;;;;;;11.50;7.72;;;;;;;30.75;34.86;100011.81;5129833;27;20032;-74
2021/08/13 09:24:01;;;;;;;23.90;7.47;;;;;;;30.89;34.67;100016.31;5113914;28;20036;-82
2021/08/13 09:26:28;;;;;;;13.55;7.47;;;;;;;31.13;33.85;100013.00;5147402;27;20035;-79
2021/08/13 09:28:58;;;;;;;13.77;7.82;;;;;;;31.06;34.13;100019.03;5129858;27;20413;-77
2021/08/13 09:31:34;;;;;;;8.32;7.10;;;;;;;31.03;33.92;100014.22;5146637;27;20043;-75
2021/08/13 09:34:13;;;;;;;11.73;7.22;;;;;;;31.07;33.68;100020.66;5146938;27;20039;-76
2021/08/13 09:36:59;;;;;;;19.20;7.85;;;;;;;30.95;33.95;100011.53;5113841;28;20390;-74
2021/08/13 09:39:30;;;;;;;13.50;7.80;;;;;;;31.01;34.31;100005.16;5113104;28;20054;-74
2021/08/13 09:41:57;;;;;;;14.60;6.97;;;;;;;30.97;33.60;100008.22;5113766;28;20109;-75
2021/08/13 09:44:31;;;;;;;17.55;7.10;;;;;;;31.00;33.91;100015.94;5114954;27;20038;-74
2021/08/13 09:47:11;;;;;;;8.55;6.68;;;;;;;31.20;34.13;100009.09;5111128;27;20087;-74
2021/08/13 09:49:39;;;;;;;12.57;7.18;;;;;;;31.29;33.84;100005.50;5124102;27;20182;-75
2021/08/13 09:52:17;;;;;;;10.95;6.43;;;;;;;31.26;33.61;99998.56;5123926;27;20028;-74
2021/08/13 09:54:43;;;;;;;12.07;6.72;;;;;;;31.35;32.41;100003.63;5109484;27;20490;-74
2021/08/13 09:57:14;;;;;;;7.57;6.63;;;;;;;31.44;33.55;100005.81;5127451;27;20023;-75
2021/08/13 09:59:56;;;;;;;7.10;6.40;;;;;;;31.32;32.58;100002.50;5117481;27;20057;-75
2021/08/13 10:02:22;;;;;;;9.07;7.03;;;;;;;31.43;32.27;100004.16;5124633;27;20023;-74
2021/08/13 10:04:47;;;;;;;6.57;5.97;;;;;;;31.58;31.95;100002.41;5114898;27;20572;-75
2021/08/13 10:07:19;;;;;;;8.38;6.38;;;;;;;31.68;31.36;100000.38;5117602;27;20083;-75
2021/08/13 10:09:45;;;;;;;11.43;6.57;;;;;;;31.83;31.97;100000.69;5119192;27;20019;-74
2021/08/13 10:12:11;;;;;;;8.52;6.30;;;;;;;32.17;31.37;100003.97;5120726;27;20023;-74
2021/08/13 10:14:40;;;;;;;12.20;6.80;;;;;;;32.27;30.74;100004.81;5113975;27;20529;-75
2021/08/13 10:17:09;;;;;;;10.02;6.45;;;;;;;32.19;31.88;100001.41;5115185;27;20038;-75
2021/08/13 10:19:35;;;;;;;10.07;6.78;;;;;;;32.25;31.59;100002.41;5147813;27;20057;-75
2021/08/13 10:22:01;;;;;;;10.05;6.57;;;;;;;32.37;31.21;100000.72;5113448;27;20465;-75
2021/08/13 10:24:28;;;;;;;10.43;6.53;;;;;;;32.21;31.83;99998.84;5113936;27;20034;-76
2021/08/13 10:26:54;;;;;;;8.98;6.30;;;;;;;32.23;31.24;100002.06;5112697;27;20063;-75
2021/08/13 10:29:21;;;;;;;9.15;6.50;;;;;;;32.20;31.15;100005.91;5128002;27;20027;-76
2021/08/13 10:31:47;;;;;;;9.25;6.07;;;;;;;32.08;30.46;99999.72;5131953;27;20506;-72
2021/08/13 10:34:12;;;;;;;7.18;5.80;;;;;;;31.94;30.67;99994.50;5129798;27;20114;-73
2021/08/13 10:36:39;;;;;;;9.35;6.00;;;;;;;32.18;30.56;100000.59;5110850;27;20389;-72
2021/08/13 10:39:06;;;;;;;11.60;6.70;;;;;;;32.29;30.47;99991.50;5128530;27;20126;-72
2021/08/13 10:41:38;;;;;;;6.22;5.63;;;;;;;32.31;30.66;99997.59;5128756;27;20102;-72
2021/08/13 10:44:08;;;;;;;14.98;7.10;;;;;;;32.52;30.38;99992.28;5126745;27;20023;-73
2021/08/13 10:46:35;;;;;;;10.25;6.70;;;;;;;32.55;29.65;99990.53;5127031;27;20026;-72
2021/08/13 10:49:01;;;;;;;9.02;5.90;;;;;;;32.52;29.95;99989.38;5126623;27;20027;-73
2021/08/13 10:51:29;;;;;;;8.75;6.38;;;;;;;32.58;29.75;99981.69;5120377;27;20035;-73
2021/08/13 10:54:09;;;;;;;9.75;6.97;;;;;;;32.59;29.56;99980.41;5114635;27;20035;-73
2021/08/13 10:56:39;;;;;;;7.63;5.90;;;;;;;32.65;29.19;99971.91;5119521;27;20393;-72
2021/08/13 10:59:04;;;;;;;11.73;5.70;;;;;;;32.73;29.21;99978.19;5125973;27;20035;-73
2021/08/13 11:01:30;;;;;;;16.83;6.45;;;;;;;32.89;28.64;99968.44;5120587;27;20027;-73
2021/08/13 11:03:55;;;;;;;11.10;6.15;;;;;;;32.79;29.58;99970.50;5124036;27;20034;-74
2021/08/13 11:06:45;;;;;;;8.90;6.70;;;;;;;32.97;28.62;99963.19;5119424;27;20603;-72
2021/08/13 11:09:32;;;;;;;12.45;5.53;;;;;;;33.16;27.84;99964.78;5101682;27;20088;-73
2021/08/13 11:11:57;;;;;;;10.48;5.95;;;;;;;33.38;28.52;99963.84;5120577;27;20011;-72
2021/08/13 11:14:24;;;;;;;6.78;6.07;;;;;;;33.44;28.51;99961.94;5116168;27;20138;-73
2021/08/13 11:16:51;;;;;;;14.77;7.00;;;;;;;33.39;27.95;99958.88;5131651;27;20162;-73
2021/08/13 11:19:16;;;;;;;6.93;5.80;;;;;;;33.22;28.18;99956.28;5127879;27;20310;-73